sensor_id;sensor_type;location;lat;lon;timestamp;P1;durP1;ratioP1;P2;durP2;ratioP2
32501;SDS011;18952;52.516;13.460;2023-05-10T00:01:40;8.25;;;5.90;;
32501;SDS011;18952;52.516;13.460;2023-05-10T00:04:08;8.50;;;6.22;;
32501;SDS011;18952;52.516;13.460;2023-05-10T00:06:40;9.93;;;6.43;;
32501;SDS011;18952;52.516;13.460;2023-05-10T00:09:11;11.90;;;6.13;;
32501;SDS011;18952;52.516;13.460;2023-05-10T00:11:43;11.65;;;6.68;;
32501;SDS011;18952;52.516;13.460;2023-05-10T00:14:11;8.93;;;6.78;;
32501;SDS011;18952;52.516;13.460;2023-05-10T00:16:38;12.57;;;6.50;;
32501;SDS011;18952;52.516;13.460;2023-05-10T00:19:04;7.95;;;6.30;;
32501;SDS011;18952;52.516;13.460;2023-05-10T00:21:31;13.85;;;7.10;;
32501;SDS011;18952;52.516;13.460;2023-05-10T00:23:58;12.00;;;6.35;;
32501;SDS011;18952;52.516;13.460;2023-05-10T00:26:24;12.82;;;6.35;;
32501;SDS011;18952;52.516;13.460;2023-05-10T00:28:51;10.00;;;6.35;;
32501;SDS011;18952;52.516;13.460;2023-05-10T00:31:18;9.38;;;6.60;;
32501;SDS011;18952;52.516;13.460;2023-05-10T00:33:45;7.88;;;6.53;;
32501;SDS011;18952;52.516;13.460;2023-05-10T00:36:11;13.55;;;6.18;;
32501;SDS011;18952;52.516;13.460;2023-05-10T00:38:39;11.00;;;6.43;;
32501;SDS011;18952;52.516;13.460;2023-05-10T00:41:07;8.27;;;5.78;;
32501;SDS011;18952;52.516;13.460;2023-05-10T00:43:34;9.02;;;6.57;;
32501;SDS011;18952;52.516;13.460;2023-05-10T00:46:03;11.63;;;6.70;;
32501;SDS011;18952;52.516;13.460;2023-05-10T00:48:30;9.93;;;6.28;;
32501;SDS011;18952;52.516;13.460;2023-05-10T00:50:59;9.90;;;5.97;;
32501;SDS011;18952;52.516;13.460;2023-05-10T00:53:27;8.18;;;5.93;;
32501;SDS011;18952;52.516;13.460;2023-05-10T00:55:59;8.20;;;6.07;;
32501;SDS011;18952;52.516;13.460;2023-05-10T00:58:26;7.78;;;6.18;;
32501;SDS011;18952;52.516;13.460;2023-05-10T01:00:57;8.15;;;6.38;;
32501;SDS011;18952;52.516;13.460;2023-05-10T01:03:28;8.55;;;6.07;;
32501;SDS011;18952;52.516;13.460;2023-05-10T01:05:58;8.60;;;6.20;;
32501;SDS011;18952;52.516;13.460;2023-05-10T01:08:25;10.98;;;6.05;;
32501;SDS011;18952;52.516;13.460;2023-05-10T01:10:53;11.10;;;6.25;;
32501;SDS011;18952;52.516;13.460;2023-05-10T01:15:59;9.88;;;6.28;;
32501;SDS011;18952;52.516;13.460;2023-05-10T01:18:26;7.55;;;6.25;;
32501;SDS011;18952;52.516;13.460;2023-05-10T01:21:04;8.35;;;6.03;;
32501;SDS011;18952;52.516;13.460;2023-05-10T01:24:19;10.80;;;6.50;;
32501;SDS011;18952;52.516;13.460;2023-05-10T01:32:48;8.30;;;6.43;;
32501;SDS011;18952;52.516;13.460;2023-05-10T01:35:29;8.50;;;6.25;;
32501;SDS011;18952;52.516;13.460;2023-05-10T01:40:54;12.73;;;6.50;;
32501;SDS011;18952;52.516;13.460;2023-05-10T01:43:31;9.07;;;6.40;;
32501;SDS011;18952;52.516;13.460;2023-05-10T01:46:07;9.73;;;6.95;;
32501;SDS011;18952;52.516;13.460;2023-05-10T01:48:40;10.82;;;6.65;;
32501;SDS011;18952;52.516;13.460;2023-05-10T01:51:14;10.40;;;6.50;;
32501;SDS011;18952;52.516;13.460;2023-05-10T01:53:46;9.20;;;7.07;;
32501;SDS011;18952;52.516;13.460;2023-05-10T01:56:15;14.80;;;6.55;;
32501;SDS011;18952;52.516;13.460;2023-05-10T01:58:43;10.80;;;6.72;;
32501;SDS011;18952;52.516;13.460;2023-05-10T02:01:13;8.18;;;6.47;;
32501;SDS011;18952;52.516;13.460;2023-05-10T02:03:40;10.43;;;6.60;;
32501;SDS011;18952;52.516;13.460;2023-05-10T02:06:09;8.80;;;6.57;;
32501;SDS011;18952;52.516;13.460;2023-05-10T02:08:38;12.57;;;6.78;;
32501;SDS011;18952;52.516;13.460;2023-05-10T02:11:06;11.45;;;6.85;;
32501;SDS011;18952;52.516;13.460;2023-05-10T02:13:34;12.93;;;6.55;;
32501;SDS011;18952;52.516;13.460;2023-05-10T02:16:03;10.68;;;6.82;;
32501;SDS011;18952;52.516;13.460;2023-05-10T02:18:33;11.40;;;7.10;;
32501;SDS011;18952;52.516;13.460;2023-05-10T02:21:02;9.73;;;6.60;;
32501;SDS011;18952;52.516;13.460;2023-05-10T02:23:29;11.63;;;7.32;;
32501;SDS011;18952;52.516;13.460;2023-05-10T02:25:57;8.90;;;7.05;;
32501;SDS011;18952;52.516;13.460;2023-05-10T02:28:26;11.27;;;6.63;;
32501;SDS011;18952;52.516;13.460;2023-05-10T02:30:54;9.88;;;6.45;;
32501;SDS011;18952;52.516;13.460;2023-05-10T02:33:21;11.65;;;6.22;;
32501;SDS011;18952;52.516;13.460;2023-05-10T02:35:50;9.45;;;6.07;;
32501;SDS011;18952;52.516;13.460;2023-05-10T02:38:18;11.02;;;6.68;;
32501;SDS011;18952;52.516;13.460;2023-05-10T02:40:50;13.98;;;6.97;;
32501;SDS011;18952;52.516;13.460;2023-05-10T02:43:18;11.15;;;6.53;;
32501;SDS011;18952;52.516;13.460;2023-05-10T02:45:50;10.68;;;5.70;;
32501;SDS011;18952;52.516;13.460;2023-05-10T02:48:18;11.48;;;6.45;;
32501;SDS011;18952;52.516;13.460;2023-05-10T02:50:46;15.48;;;6.47;;
32501;SDS011;18952;52.516;13.460;2023-05-10T02:53:26;9.68;;;6.40;;
32501;SDS011;18952;52.516;13.460;2023-05-10T02:56:00;10.90;;;6.30;;
32501;SDS011;18952;52.516;13.460;2023-05-10T02:58:32;10.45;;;6.53;;
32501;SDS011;18952;52.516;13.460;2023-05-10T03:00:59;7.32;;;6.20;;
32501;SDS011;18952;52.516;13.460;2023-05-10T03:03:27;13.75;;;6.85;;
32501;SDS011;18952;52.516;13.460;2023-05-10T03:05:54;13.23;;;6.53;;
32501;SDS011;18952;52.516;13.460;2023-05-10T03:08:22;11.57;;;6.72;;
32501;SDS011;18952;52.516;13.460;2023-05-10T03:13:48;11.60;;;6.60;;
32501;SDS011;18952;52.516;13.460;2023-05-10T03:16:50;10.73;;;6.43;;
32501;SDS011;18952;52.516;13.460;2023-05-10T03:19:24;14.23;;;6.90;;
32501;SDS011;18952;52.516;13.460;2023-05-10T03:21:56;14.07;;;6.63;;
32501;SDS011;18952;52.516;13.460;2023-05-10T03:24:26;8.65;;;6.43;;
32501;SDS011;18952;52.516;13.460;2023-05-10T03:26:55;11.57;;;6.60;;
32501;SDS011;18952;52.516;13.460;2023-05-10T03:29:25;10.65;;;6.68;;
32501;SDS011;18952;52.516;13.460;2023-05-10T03:31:53;10.80;;;6.13;;
32501;SDS011;18952;52.516;13.460;2023-05-10T03:34:23;10.13;;;6.60;;
32501;SDS011;18952;52.516;13.460;2023-05-10T03:36:50;12.95;;;6.95;;
32501;SDS011;18952;52.516;13.460;2023-05-10T03:39:17;11.45;;;6.40;;
32501;SDS011;18952;52.516;13.460;2023-05-10T03:41:45;10.10;;;6.63;;
32501;SDS011;18952;52.516;13.460;2023-05-10T03:44:13;11.40;;;5.80;;
32501;SDS011;18952;52.516;13.460;2023-05-10T03:46:41;10.43;;;6.28;;
32501;SDS011;18952;52.516;13.460;2023-05-10T03:49:08;15.88;;;7.07;;
32501;SDS011;18952;52.516;13.460;2023-05-10T03:51:36;11.82;;;6.22;;
32501;SDS011;18952;52.516;13.460;2023-05-10T03:54:03;15.23;;;6.20;;
32501;SDS011;18952;52.516;13.460;2023-05-10T03:56:30;9.52;;;5.97;;
32501;SDS011;18952;52.516;13.460;2023-05-10T03:59:02;11.57;;;6.28;;
32501;SDS011;18952;52.516;13.460;2023-05-10T04:01:31;10.90;;;6.78;;
32501;SDS011;18952;52.516;13.460;2023-05-10T04:03:58;13.93;;;6.15;;
32501;SDS011;18952;52.516;13.460;2023-05-10T04:06:25;11.10;;;5.90;;
32501;SDS011;18952;52.516;13.460;2023-05-10T04:08:51;9.68;;;5.72;;
32501;SDS011;18952;52.516;13.460;2023-05-10T04:11:20;10.05;;;6.13;;
32501;SDS011;18952;52.516;13.460;2023-05-10T04:13:47;9.25;;;6.13;;
32501;SDS011;18952;52.516;13.460;2023-05-10T04:16:14;14.93;;;6.22;;
32501;SDS011;18952;52.516;13.460;2023-05-10T04:18:42;11.20;;;5.88;;
32501;SDS011;18952;52.516;13.460;2023-05-10T04:21:12;9.38;;;5.85;;
32501;SDS011;18952;52.516;13.460;2023-05-10T04:23:41;7.70;;;6.05;;
32501;SDS011;18952;52.516;13.460;2023-05-10T04:26:07;10.25;;;6.65;;
32501;SDS011;18952;52.516;13.460;2023-05-10T04:28:34;12.07;;;6.13;;
32501;SDS011;18952;52.516;13.460;2023-05-10T04:31:07;10.55;;;6.38;;
32501;SDS011;18952;52.516;13.460;2023-05-10T04:33:37;14.07;;;6.03;;
32501;SDS011;18952;52.516;13.460;2023-05-10T04:36:15;10.02;;;5.40;;
32501;SDS011;18952;52.516;13.460;2023-05-10T04:38:42;11.50;;;5.68;;
32501;SDS011;18952;52.516;13.460;2023-05-10T04:41:09;15.57;;;6.03;;
32501;SDS011;18952;52.516;13.460;2023-05-10T04:43:37;9.23;;;5.20;;
32501;SDS011;18952;52.516;13.460;2023-05-10T04:46:04;10.45;;;6.10;;
32501;SDS011;18952;52.516;13.460;2023-05-10T04:48:32;10.90;;;5.80;;
32501;SDS011;18952;52.516;13.460;2023-05-10T04:50:59;12.52;;;5.70;;
32501;SDS011;18952;52.516;13.460;2023-05-10T04:53:26;15.40;;;6.05;;
32501;SDS011;18952;52.516;13.460;2023-05-10T04:55:52;10.80;;;5.75;;
32501;SDS011;18952;52.516;13.460;2023-05-10T04:58:19;10.05;;;5.55;;
32501;SDS011;18952;52.516;13.460;2023-05-10T05:00:47;13.07;;;6.38;;
32501;SDS011;18952;52.516;13.460;2023-05-10T05:03:14;10.68;;;4.85;;
32501;SDS011;18952;52.516;13.460;2023-05-10T05:05:43;12.95;;;5.55;;
32501;SDS011;18952;52.516;13.460;2023-05-10T05:08:10;11.30;;;5.22;;
32501;SDS011;18952;52.516;13.460;2023-05-10T05:10:37;10.00;;;4.85;;
32501;SDS011;18952;52.516;13.460;2023-05-10T05:13:04;10.27;;;5.18;;
32501;SDS011;18952;52.516;13.460;2023-05-10T05:15:35;9.75;;;5.10;;
32501;SDS011;18952;52.516;13.460;2023-05-10T05:18:06;7.55;;;5.10;;
32501;SDS011;18952;52.516;13.460;2023-05-10T05:20:43;8.05;;;4.95;;
32501;SDS011;18952;52.516;13.460;2023-05-10T05:23:12;13.02;;;5.32;;
32501;SDS011;18952;52.516;13.460;2023-05-10T05:25:40;7.20;;;4.72;;
32501;SDS011;18952;52.516;13.460;2023-05-10T05:28:07;6.78;;;5.10;;
32501;SDS011;18952;52.516;13.460;2023-05-10T05:30:34;6.88;;;4.50;;
32501;SDS011;18952;52.516;13.460;2023-05-10T05:33:01;7.30;;;5.05;;
32501;SDS011;18952;52.516;13.460;2023-05-10T05:35:28;12.18;;;5.10;;
32501;SDS011;18952;52.516;13.460;2023-05-10T05:37:55;11.13;;;5.13;;
32501;SDS011;18952;52.516;13.460;2023-05-10T05:40:22;10.90;;;4.75;;
32501;SDS011;18952;52.516;13.460;2023-05-10T05:42:50;12.52;;;5.05;;
32501;SDS011;18952;52.516;13.460;2023-05-10T05:45:17;7.80;;;4.22;;
32501;SDS011;18952;52.516;13.460;2023-05-10T05:47:45;11.23;;;5.20;;
32501;SDS011;18952;52.516;13.460;2023-05-10T05:50:12;12.18;;;4.93;;
32501;SDS011;18952;52.516;13.460;2023-05-10T05:52:40;14.15;;;4.78;;
32501;SDS011;18952;52.516;13.460;2023-05-10T05:55:07;7.15;;;4.78;;
32501;SDS011;18952;52.516;13.460;2023-05-10T05:57:38;7.15;;;4.43;;
32501;SDS011;18952;52.516;13.460;2023-05-10T06:00:05;11.73;;;4.60;;
32501;SDS011;18952;52.516;13.460;2023-05-10T06:02:32;7.60;;;4.28;;
32501;SDS011;18952;52.516;13.460;2023-05-10T06:04:59;8.70;;;3.88;;
32501;SDS011;18952;52.516;13.460;2023-05-10T06:07:26;5.75;;;3.85;;
32501;SDS011;18952;52.516;13.460;2023-05-10T06:10:04;6.38;;;3.65;;
32501;SDS011;18952;52.516;13.460;2023-05-10T06:12:31;8.02;;;3.75;;
32501;SDS011;18952;52.516;13.460;2023-05-10T06:14:58;8.27;;;3.45;;
32501;SDS011;18952;52.516;13.460;2023-05-10T06:17:25;5.72;;;3.70;;
32501;SDS011;18952;52.516;13.460;2023-05-10T06:19:52;8.13;;;3.72;;
32501;SDS011;18952;52.516;13.460;2023-05-10T06:22:20;9.52;;;4.55;;
32501;SDS011;18952;52.516;13.460;2023-05-10T06:24:46;4.10;;;3.20;;
32501;SDS011;18952;52.516;13.460;2023-05-10T06:27:14;11.45;;;4.10;;
32501;SDS011;18952;52.516;13.460;2023-05-10T06:29:41;10.60;;;3.85;;
32501;SDS011;18952;52.516;13.460;2023-05-10T06:32:09;6.30;;;3.33;;
32501;SDS011;18952;52.516;13.460;2023-05-10T06:34:37;6.55;;;3.50;;
32501;SDS011;18952;52.516;13.460;2023-05-10T06:37:05;7.95;;;4.07;;
32501;SDS011;18952;52.516;13.460;2023-05-10T06:39:35;8.68;;;3.47;;
32501;SDS011;18952;52.516;13.460;2023-05-10T06:42:03;9.73;;;3.45;;
32501;SDS011;18952;52.516;13.460;2023-05-10T06:44:31;9.20;;;3.70;;
32501;SDS011;18952;52.516;13.460;2023-05-10T06:46:58;6.47;;;3.30;;
32501;SDS011;18952;52.516;13.460;2023-05-10T06:49:27;5.63;;;3.60;;
32501;SDS011;18952;52.516;13.460;2023-05-10T06:51:56;9.63;;;4.32;;
32501;SDS011;18952;52.516;13.460;2023-05-10T06:54:23;8.45;;;3.30;;
32501;SDS011;18952;52.516;13.460;2023-05-10T06:56:50;4.53;;;3.28;;
32501;SDS011;18952;52.516;13.460;2023-05-10T06:59:16;6.90;;;3.63;;
32501;SDS011;18952;52.516;13.460;2023-05-10T07:01:43;7.13;;;3.55;;
32501;SDS011;18952;52.516;13.460;2023-05-10T07:04:10;10.88;;;4.00;;
32501;SDS011;18952;52.516;13.460;2023-05-10T07:06:37;7.70;;;3.88;;
32501;SDS011;18952;52.516;13.460;2023-05-10T07:09:06;7.13;;;3.55;;
32501;SDS011;18952;52.516;13.460;2023-05-10T07:11:33;8.75;;;3.63;;
32501;SDS011;18952;52.516;13.460;2023-05-10T07:13:59;9.63;;;3.08;;
32501;SDS011;18952;52.516;13.460;2023-05-10T07:16:26;19.92;;;3.72;;
32501;SDS011;18952;52.516;13.460;2023-05-10T07:18:53;6.03;;;3.53;;
32501;SDS011;18952;52.516;13.460;2023-05-10T07:21:20;10.00;;;3.90;;
32501;SDS011;18952;52.516;13.460;2023-05-10T07:23:48;9.40;;;3.67;;
32501;SDS011;18952;52.516;13.460;2023-05-10T07:26:15;5.28;;;3.22;;
32501;SDS011;18952;52.516;13.460;2023-05-10T07:28:43;9.55;;;3.88;;
32501;SDS011;18952;52.516;13.460;2023-05-10T07:31:11;6.53;;;3.92;;
32501;SDS011;18952;52.516;13.460;2023-05-10T07:33:39;5.55;;;3.60;;
32501;SDS011;18952;52.516;13.460;2023-05-10T07:36:07;7.65;;;3.55;;
32501;SDS011;18952;52.516;13.460;2023-05-10T07:38:37;8.73;;;3.35;;
32501;SDS011;18952;52.516;13.460;2023-05-10T07:41:06;4.38;;;3.30;;
32501;SDS011;18952;52.516;13.460;2023-05-10T07:43:34;8.00;;;3.42;;
32501;SDS011;18952;52.516;13.460;2023-05-10T07:46:01;6.07;;;3.63;;
32501;SDS011;18952;52.516;13.460;2023-05-10T07:48:28;7.07;;;3.30;;
32501;SDS011;18952;52.516;13.460;2023-05-10T07:50:54;8.02;;;3.60;;
32501;SDS011;18952;52.516;13.460;2023-05-10T07:53:21;7.20;;;3.75;;
32501;SDS011;18952;52.516;13.460;2023-05-10T07:55:53;6.60;;;3.10;;
32501;SDS011;18952;52.516;13.460;2023-05-10T07:58:23;7.63;;;3.35;;
32501;SDS011;18952;52.516;13.460;2023-05-10T08:00:50;6.32;;;3.65;;
32501;SDS011;18952;52.516;13.460;2023-05-10T08:03:17;7.43;;;3.20;;
32501;SDS011;18952;52.516;13.460;2023-05-10T08:05:44;7.75;;;3.30;;
32501;SDS011;18952;52.516;13.460;2023-05-10T08:08:16;9.90;;;3.20;;
32501;SDS011;18952;52.516;13.460;2023-05-10T08:10:44;6.68;;;3.35;;
32501;SDS011;18952;52.516;13.460;2023-05-10T08:13:11;6.72;;;4.43;;
32501;SDS011;18952;52.516;13.460;2023-05-10T08:15:39;7.57;;;3.80;;
32501;SDS011;18952;52.516;13.460;2023-05-10T08:18:06;11.55;;;3.47;;
32501;SDS011;18952;52.516;13.460;2023-05-10T08:20:38;6.78;;;3.17;;
32501;SDS011;18952;52.516;13.460;2023-05-10T08:23:07;5.60;;;3.70;;
32501;SDS011;18952;52.516;13.460;2023-05-10T08:25:33;6.07;;;3.70;;
32501;SDS011;18952;52.516;13.460;2023-05-10T08:28:01;6.20;;;3.22;;
32501;SDS011;18952;52.516;13.460;2023-05-10T08:30:30;7.57;;;3.50;;
32501;SDS011;18952;52.516;13.460;2023-05-10T08:33:00;8.63;;;3.17;;
32501;SDS011;18952;52.516;13.460;2023-05-10T08:35:28;7.07;;;3.35;;
32501;SDS011;18952;52.516;13.460;2023-05-10T08:37:56;7.90;;;3.40;;
32501;SDS011;18952;52.516;13.460;2023-05-10T08:40:24;5.68;;;3.47;;
32501;SDS011;18952;52.516;13.460;2023-05-10T08:43:04;6.07;;;3.08;;
32501;SDS011;18952;52.516;13.460;2023-05-10T08:45:37;5.35;;;3.13;;
32501;SDS011;18952;52.516;13.460;2023-05-10T08:48:09;12.82;;;3.65;;
32501;SDS011;18952;52.516;13.460;2023-05-10T08:50:41;8.02;;;3.25;;
32501;SDS011;18952;52.516;13.460;2023-05-10T08:53:12;9.15;;;3.05;;
32501;SDS011;18952;52.516;13.460;2023-05-10T08:55:39;5.07;;;3.58;;
32501;SDS011;18952;52.516;13.460;2023-05-10T08:58:09;13.20;;;3.13;;
32501;SDS011;18952;52.516;13.460;2023-05-10T09:00:48;7.35;;;3.10;;
32501;SDS011;18952;52.516;13.460;2023-05-10T09:03:42;10.35;;;4.20;;
32501;SDS011;18952;52.516;13.460;2023-05-10T09:06:13;9.77;;;3.20;;
32501;SDS011;18952;52.516;13.460;2023-05-10T09:08:43;11.35;;;3.53;;
32501;SDS011;18952;52.516;13.460;2023-05-10T09:11:12;6.22;;;3.05;;
32501;SDS011;18952;52.516;13.460;2023-05-10T09:13:40;5.50;;;3.75;;
32501;SDS011;18952;52.516;13.460;2023-05-10T09:16:13;8.95;;;3.00;;
32501;SDS011;18952;52.516;13.460;2023-05-10T09:18:48;7.20;;;3.20;;
32501;SDS011;18952;52.516;13.460;2023-05-10T09:21:16;5.88;;;3.38;;
32501;SDS011;18952;52.516;13.460;2023-05-10T09:23:44;8.45;;;3.42;;
32501;SDS011;18952;52.516;13.460;2023-05-10T09:26:14;9.70;;;3.58;;
32501;SDS011;18952;52.516;13.460;2023-05-10T09:28:54;7.90;;;3.20;;
32501;SDS011;18952;52.516;13.460;2023-05-10T09:31:23;11.00;;;3.28;;
32501;SDS011;18952;52.516;13.460;2023-05-10T09:33:53;8.70;;;3.50;;
32501;SDS011;18952;52.516;13.460;2023-05-10T09:36:21;4.38;;;3.05;;
32501;SDS011;18952;52.516;13.460;2023-05-10T09:38:50;8.40;;;3.00;;
32501;SDS011;18952;52.516;13.460;2023-05-10T09:41:18;8.50;;;3.10;;
32501;SDS011;18952;52.516;13.460;2023-05-10T09:43:50;7.13;;;3.20;;
32501;SDS011;18952;52.516;13.460;2023-05-10T09:46:27;6.28;;;3.40;;
32501;SDS011;18952;52.516;13.460;2023-05-10T09:48:56;10.32;;;5.65;;
32501;SDS011;18952;52.516;13.460;2023-05-10T09:51:23;6.50;;;3.70;;
32501;SDS011;18952;52.516;13.460;2023-05-10T09:56:42;5.53;;;3.30;;
32501;SDS011;18952;52.516;13.460;2023-05-10T09:59:10;7.07;;;3.17;;
32501;SDS011;18952;52.516;13.460;2023-05-10T10:01:40;7.65;;;3.40;;
32501;SDS011;18952;52.516;13.460;2023-05-10T10:04:08;7.05;;;3.30;;
32501;SDS011;18952;52.516;13.460;2023-05-10T10:06:40;7.38;;;3.53;;
32501;SDS011;18952;52.516;13.460;2023-05-10T10:09:09;4.75;;;3.13;;
32501;SDS011;18952;52.516;13.460;2023-05-10T10:11:38;10.63;;;3.78;;
32501;SDS011;18952;52.516;13.460;2023-05-10T10:14:08;4.43;;;3.00;;
32501;SDS011;18952;52.516;13.460;2023-05-10T10:16:35;8.57;;;2.83;;
32501;SDS011;18952;52.516;13.460;2023-05-10T10:19:22;7.38;;;2.95;;
32501;SDS011;18952;52.516;13.460;2023-05-10T10:21:53;9.45;;;3.00;;
32501;SDS011;18952;52.516;13.460;2023-05-10T10:24:27;8.68;;;3.17;;
32501;SDS011;18952;52.516;13.460;2023-05-10T10:26:59;7.90;;;3.20;;
32501;SDS011;18952;52.516;13.460;2023-05-10T10:29:55;6.50;;;2.70;;
32501;SDS011;18952;52.516;13.460;2023-05-10T10:35:55;10.57;;;3.30;;
32501;SDS011;18952;52.516;13.460;2023-05-10T10:41:29;7.15;;;2.90;;
32501;SDS011;18952;52.516;13.460;2023-05-10T10:49:43;6.25;;;2.80;;
32501;SDS011;18952;52.516;13.460;2023-05-10T10:52:28;3.72;;;2.70;;
32501;SDS011;18952;52.516;13.460;2023-05-10T10:57:45;11.63;;;3.50;;
32501;SDS011;18952;52.516;13.460;2023-05-10T11:03:10;6.20;;;4.07;;
32501;SDS011;18952;52.516;13.460;2023-05-10T11:05:42;6.22;;;2.83;;
32501;SDS011;18952;52.516;13.460;2023-05-10T11:08:31;5.70;;;3.20;;
32501;SDS011;18952;52.516;13.460;2023-05-10T11:11:04;6.55;;;3.05;;
32501;SDS011;18952;52.516;13.460;2023-05-10T11:16:23;10.93;;;3.17;;
32501;SDS011;18952;52.516;13.460;2023-05-10T11:19:04;9.10;;;3.50;;
32501;SDS011;18952;52.516;13.460;2023-05-10T11:24:30;8.18;;;3.38;;
32501;SDS011;18952;52.516;13.460;2023-05-10T11:26:57;5.55;;;2.90;;
32501;SDS011;18952;52.516;13.460;2023-05-10T11:29:24;4.15;;;2.90;;
32501;SDS011;18952;52.516;13.460;2023-05-10T11:31:51;6.15;;;2.60;;
32501;SDS011;18952;52.516;13.460;2023-05-10T11:34:24;8.02;;;3.00;;
32501;SDS011;18952;52.516;13.460;2023-05-10T11:36:53;11.00;;;3.00;;
32501;SDS011;18952;52.516;13.460;2023-05-10T11:39:21;9.93;;;3.20;;
32501;SDS011;18952;52.516;13.460;2023-05-10T11:41:51;11.18;;;3.00;;
32501;SDS011;18952;52.516;13.460;2023-05-10T11:44:18;10.13;;;3.00;;
32501;SDS011;18952;52.516;13.460;2023-05-10T11:46:46;8.98;;;2.83;;
32501;SDS011;18952;52.516;13.460;2023-05-10T11:49:14;14.70;;;3.20;;
32501;SDS011;18952;52.516;13.460;2023-05-10T11:51:42;10.95;;;3.03;;
32501;SDS011;18952;52.516;13.460;2023-05-10T11:54:10;12.73;;;3.65;;
32501;SDS011;18952;52.516;13.460;2023-05-10T11:59:13;7.45;;;2.47;;
32501;SDS011;18952;52.516;13.460;2023-05-10T12:01:44;5.25;;;2.72;;
32501;SDS011;18952;52.516;13.460;2023-05-10T12:04:15;12.68;;;3.47;;
32501;SDS011;18952;52.516;13.460;2023-05-10T12:06:44;8.75;;;2.78;;
32501;SDS011;18952;52.516;13.460;2023-05-10T12:09:31;14.73;;;3.55;;
32501;SDS011;18952;52.516;13.460;2023-05-10T12:12:10;15.20;;;2.85;;
32501;SDS011;18952;52.516;13.460;2023-05-10T12:14:43;7.28;;;2.90;;
32501;SDS011;18952;52.516;13.460;2023-05-10T12:17:16;9.90;;;2.75;;
32501;SDS011;18952;52.516;13.460;2023-05-10T12:19:43;17.58;;;2.80;;
32501;SDS011;18952;52.516;13.460;2023-05-10T12:22:12;13.63;;;2.60;;
32501;SDS011;18952;52.516;13.460;2023-05-10T12:24:39;13.60;;;2.45;;
32501;SDS011;18952;52.516;13.460;2023-05-10T12:27:07;12.48;;;2.58;;
32501;SDS011;18952;52.516;13.460;2023-05-10T12:29:35;8.63;;;2.58;;
32501;SDS011;18952;52.516;13.460;2023-05-10T12:32:09;7.82;;;2.58;;
32501;SDS011;18952;52.516;13.460;2023-05-10T12:34:39;12.30;;;2.47;;
32501;SDS011;18952;52.516;13.460;2023-05-10T12:37:08;8.05;;;2.40;;
32501;SDS011;18952;52.516;13.460;2023-05-10T12:39:44;6.40;;;2.63;;
32501;SDS011;18952;52.516;13.460;2023-05-10T12:42:13;11.25;;;2.60;;
32501;SDS011;18952;52.516;13.460;2023-05-10T12:44:40;3.95;;;2.20;;
32501;SDS011;18952;52.516;13.460;2023-05-10T12:47:06;9.15;;;2.40;;
32501;SDS011;18952;52.516;13.460;2023-05-10T12:49:33;8.90;;;2.65;;
32501;SDS011;18952;52.516;13.460;2023-05-10T12:52:00;8.60;;;2.40;;
32501;SDS011;18952;52.516;13.460;2023-05-10T12:54:27;5.95;;;2.42;;
32501;SDS011;18952;52.516;13.460;2023-05-10T12:56:55;6.75;;;2.28;;
32501;SDS011;18952;52.516;13.460;2023-05-10T12:59:23;9.48;;;2.42;;
32501;SDS011;18952;52.516;13.460;2023-05-10T13:01:51;9.23;;;3.08;;
32501;SDS011;18952;52.516;13.460;2023-05-10T13:04:18;4.25;;;2.30;;
32501;SDS011;18952;52.516;13.460;2023-05-10T13:06:45;4.43;;;2.10;;
32501;SDS011;18952;52.516;13.460;2023-05-10T13:09:12;10.85;;;2.50;;
32501;SDS011;18952;52.516;13.460;2023-05-10T13:11:38;7.20;;;2.47;;
32501;SDS011;18952;52.516;13.460;2023-05-10T13:14:06;8.77;;;2.20;;
32501;SDS011;18952;52.516;13.460;2023-05-10T13:16:33;13.77;;;2.42;;
32501;SDS011;18952;52.516;13.460;2023-05-10T13:19:00;8.98;;;1.92;;
32501;SDS011;18952;52.516;13.460;2023-05-10T13:21:27;5.38;;;2.55;;
32501;SDS011;18952;52.516;13.460;2023-05-10T13:24:01;6.25;;;2.40;;
32501;SDS011;18952;52.516;13.460;2023-05-10T13:26:30;4.47;;;2.33;;
32501;SDS011;18952;52.516;13.460;2023-05-10T13:28:57;5.55;;;2.10;;
32501;SDS011;18952;52.516;13.460;2023-05-10T13:31:24;9.50;;;2.20;;
32501;SDS011;18952;52.516;13.460;2023-05-10T13:33:55;14.23;;;2.53;;
32501;SDS011;18952;52.516;13.460;2023-05-10T13:36:22;5.25;;;2.30;;
32501;SDS011;18952;52.516;13.460;2023-05-10T13:38:49;5.95;;;1.90;;
32501;SDS011;18952;52.516;13.460;2023-05-10T13:41:24;8.93;;;2.40;;
32501;SDS011;18952;52.516;13.460;2023-05-10T13:43:57;5.65;;;2.28;;
32501;SDS011;18952;52.516;13.460;2023-05-10T13:46:24;4.72;;;2.17;;
32501;SDS011;18952;52.516;13.460;2023-05-10T13:48:52;3.75;;;2.25;;
32501;SDS011;18952;52.516;13.460;2023-05-10T13:51:19;11.55;;;2.38;;
32501;SDS011;18952;52.516;13.460;2023-05-10T13:53:50;5.72;;;2.45;;
32501;SDS011;18952;52.516;13.460;2023-05-10T13:56:21;6.43;;;2.20;;
32501;SDS011;18952;52.516;13.460;2023-05-10T13:58:48;4.45;;;2.17;;
32501;SDS011;18952;52.516;13.460;2023-05-10T14:01:16;7.38;;;2.30;;
32501;SDS011;18952;52.516;13.460;2023-05-10T14:03:43;6.47;;;2.20;;
32501;SDS011;18952;52.516;13.460;2023-05-10T14:06:15;14.82;;;2.70;;
32501;SDS011;18952;52.516;13.460;2023-05-10T14:08:44;7.00;;;2.30;;
32501;SDS011;18952;52.516;13.460;2023-05-10T14:11:11;7.18;;;2.20;;
32501;SDS011;18952;52.516;13.460;2023-05-10T14:13:37;7.45;;;2.45;;
32501;SDS011;18952;52.516;13.460;2023-05-10T14:16:04;7.28;;;2.28;;
32501;SDS011;18952;52.516;13.460;2023-05-10T14:18:31;4.45;;;2.20;;
32501;SDS011;18952;52.516;13.460;2023-05-10T14:20:58;5.75;;;2.13;;
32501;SDS011;18952;52.516;13.460;2023-05-10T14:23:25;7.93;;;2.03;;
32501;SDS011;18952;52.516;13.460;2023-05-10T14:25:52;8.38;;;2.40;;
32501;SDS011;18952;52.516;13.460;2023-05-10T14:28:20;7.00;;;2.20;;
32501;SDS011;18952;52.516;13.460;2023-05-10T14:30:48;7.47;;;2.55;;
32501;SDS011;18952;52.516;13.460;2023-05-10T14:33:16;7.45;;;2.40;;
32501;SDS011;18952;52.516;13.460;2023-05-10T14:35:45;9.40;;;2.40;;
32501;SDS011;18952;52.516;13.460;2023-05-10T14:38:18;4.35;;;2.10;;
32501;SDS011;18952;52.516;13.460;2023-05-10T14:40:45;6.15;;;2.33;;
32501;SDS011;18952;52.516;13.460;2023-05-10T14:43:16;7.47;;;1.95;;
32501;SDS011;18952;52.516;13.460;2023-05-10T14:45:49;7.82;;;2.40;;
32501;SDS011;18952;52.516;13.460;2023-05-10T14:48:20;4.05;;;2.15;;
32501;SDS011;18952;52.516;13.460;2023-05-10T14:50:56;4.15;;;2.15;;
32501;SDS011;18952;52.516;13.460;2023-05-10T14:53:24;3.20;;;2.10;;
32501;SDS011;18952;52.516;13.460;2023-05-10T14:55:55;6.03;;;2.38;;
32501;SDS011;18952;52.516;13.460;2023-05-10T14:58:22;8.32;;;2.75;;
32501;SDS011;18952;52.516;13.460;2023-05-10T15:00:49;5.82;;;2.20;;
32501;SDS011;18952;52.516;13.460;2023-05-10T15:03:23;9.05;;;2.42;;
32501;SDS011;18952;52.516;13.460;2023-05-10T15:05:58;5.57;;;2.37;;
32501;SDS011;18952;52.516;13.460;2023-05-10T15:08:26;3.30;;;2.28;;
32501;SDS011;18952;52.516;13.460;2023-05-10T15:10:53;4.65;;;2.35;;
32501;SDS011;18952;52.516;13.460;2023-05-10T15:13:21;5.95;;;2.00;;
32501;SDS011;18952;52.516;13.460;2023-05-10T15:15:48;4.47;;;1.92;;
32501;SDS011;18952;52.516;13.460;2023-05-10T15:18:15;7.70;;;2.13;;
32501;SDS011;18952;52.516;13.460;2023-05-10T15:20:42;5.28;;;1.92;;
32501;SDS011;18952;52.516;13.460;2023-05-10T15:23:09;5.45;;;2.58;;
32501;SDS011;18952;52.516;13.460;2023-05-10T15:25:36;6.60;;;1.83;;
32501;SDS011;18952;52.516;13.460;2023-05-10T15:28:03;5.43;;;2.03;;